Lake Arrowhead, CA (92352)

2:57 PM PST on February 10, 2016 (GMT -0800)
Cedar Ridge Estates | | Change Station
CLOSE
Current Station
Personal Weather Station
Location: Lake Arrowhead, CA
Elevation: 5580 ft
Nearby Weather Stations

Elev 5580 ft 34.25 °N, 117.17 °W | Updated 17 seconds ago

Clear
Clear
66.0 °F
Feels Like 66.0 °F
N
2.0
Wind Variable Wind from NNW
Gusts 4.0 mph

Today
High -- | Low -- °F
--% Chance of Precip.
Yesterday
High -- | Low -- °F
Precip. -- in
Pressure 30.38 in
Visibility 10.0 miles
Clouds Clear
Dew Point 25 °F
Humidity 21%
Rainfall 0.00 in
Snow Depth Not available.
6:39 AM 5:27 PM
Waxing Crescent, 7% visible
METAR KL35 102235Z AUTO 10003KT 10SM CLR 17/M12 A3038 RMK AO2
Pressure 30.38 in
Visibility 10.0 miles
Clouds Clear
Dew Point 25 °F
Humidity 21%
Rainfall 0.00 in
Snow Depth Not available.
6:39 AM 5:27 PM
Waxing Crescent, 7% visible
METAR KL35 102235Z AUTO 10003KT 10SM CLR 17/M12 A3038 RMK AO2

10-Day Weather Forecast

Almanac

Astronomy

Feb. 10, 2016 Rise Set
Actual Time
Civil Twilight
Nautical Twilight
Astronomical Twilight
Moon
Length of Visible Light
Length of Day
Tomorrow will be .
, % of the Moon is Illuminated

Today's Extremes

State Highs State Lows

Community

WunderPhotos

Upload Photos

1,891,940 photos uploaded!

WunderBlog® & News

Nearby

Air Quality

  Air Quality AQ Index Pollutant
Not available.

Snow Depth

Station Depth Elevation

Earthquake Activity

City Distance Mag. Time & Date
Minimum magnitude displayed is 2.5.

Coastal Water Temperatures

Place Temperature

Stations

Nearby Weather Stations

Station Location Temp. Windchill Dew Point Humidity Wind Precip. Elev Updated Type
                   

Watches & Warnings

There are currently no watches in effect.